sensor_id;sensor_type;location;lat;lon;timestamp;temperature;humidity
23618;DHT22;18207;32.078;34.818;2024-02-21T00:00:37;21.80;44.40
23618;DHT22;18207;32.078;34.818;2024-02-21T00:03:13;21.80;44.40
23618;DHT22;18207;32.078;34.818;2024-02-21T00:05:58;21.80;44.50
23618;DHT22;18207;32.078;34.818;2024-02-21T00:08:33;21.80;44.50
23618;DHT22;18207;32.078;34.818;2024-02-21T00:11:09;21.90;44.50
23618;DHT22;18207;32.078;34.818;2024-02-21T00:13:46;21.80;44.40
23618;DHT22;18207;32.078;34.818;2024-02-21T00:16:30;21.80;45.10
23618;DHT22;18207;32.078;34.818;2024-02-21T00:19:08;21.80;44.40
23618;DHT22;18207;32.078;34.818;2024-02-21T00:21:46;21.80;44.40
23618;DHT22;18207;32.078;34.818;2024-02-21T00:24:23;21.80;44.40
23618;DHT22;18207;32.078;34.818;2024-02-21T00:27:00;21.80;44.40
23618;DHT22;18207;32.078;34.818;2024-02-21T00:29:37;21.80;44.40
23618;DHT22;18207;32.078;34.818;2024-02-21T00:32:15;21.80;44.30
23618;DHT22;18207;32.078;34.818;2024-02-21T00:34:52;21.80;44.20
23618;DHT22;18207;32.078;34.818;2024-02-21T00:37:29;21.80;44.20
23618;DHT22;18207;32.078;34.818;2024-02-21T00:40:06;21.70;44.20
23618;DHT22;18207;32.078;34.818;2024-02-21T00:42:43;21.70;44.40
23618;DHT22;18207;32.078;34.818;2024-02-21T00:45:21;21.70;44.40
23618;DHT22;18207;32.078;34.818;2024-02-21T00:48:01;21.70;44.40
23618;DHT22;18207;32.078;34.818;2024-02-21T00:50:37;21.70;44.40
23618;DHT22;18207;32.078;34.818;2024-02-21T00:53:13;21.70;44.40
23618;DHT22;18207;32.078;34.818;2024-02-21T00:55:51;21.70;44.40
23618;DHT22;18207;32.078;34.818;2024-02-21T00:58:32;21.70;44.40
23618;DHT22;18207;32.078;34.818;2024-02-21T01:01:07;21.60;44.30
23618;DHT22;18207;32.078;34.818;2024-02-21T01:03:47;21.60;44.30
23618;DHT22;18207;32.078;34.818;2024-02-21T01:06:26;21.70;44.40
23618;DHT22;18207;32.078;34.818;2024-02-21T01:09:02;21.70;43.80
23618;DHT22;18207;32.078;34.818;2024-02-21T01:11:41;21.70;44.40
23618;DHT22;18207;32.078;34.818;2024-02-21T01:14:17;21.60;44.30
23618;DHT22;18207;32.078;34.818;2024-02-21T01:16:55;21.60;44.30
23618;DHT22;18207;32.078;34.818;2024-02-21T01:19:34;21.60;44.30
23618;DHT22;18207;32.078;34.818;2024-02-21T01:22:09;21.60;44.30
23618;DHT22;18207;32.078;34.818;2024-02-21T01:24:46;21.60;44.30
23618;DHT22;18207;32.078;34.818;2024-02-21T01:27:21;21.60;44.30
23618;DHT22;18207;32.078;34.818;2024-02-21T01:29:57;21.60;44.30
23618;DHT22;18207;32.078;34.818;2024-02-21T01:32:32;21.60;44.30
23618;DHT22;18207;32.078;34.818;2024-02-21T01:35:10;21.60;44.30
23618;DHT22;18207;32.078;34.818;2024-02-21T01:37:45;21.60;44.30
23618;DHT22;18207;32.078;34.818;2024-02-21T01:40:24;21.50;44.20
23618;DHT22;18207;32.078;34.818;2024-02-21T01:42:59;21.50;44.20
23618;DHT22;18207;32.078;34.818;2024-02-21T01:45:34;21.60;44.30
23618;DHT22;18207;32.078;34.818;2024-02-21T01:48:09;21.50;44.20
23618;DHT22;18207;32.078;34.818;2024-02-21T01:50:47;21.50;44.20
23618;DHT22;18207;32.078;34.818;2024-02-21T01:53:25;21.50;44.20
23618;DHT22;18207;32.078;34.818;2024-02-21T01:56:06;21.50;44.30
23618;DHT22;18207;32.078;34.818;2024-02-21T01:58:44;21.50;44.30
23618;DHT22;18207;32.078;34.818;2024-02-21T02:01:22;21.50;44.20
23618;DHT22;18207;32.078;34.818;2024-02-21T02:03:59;21.50;44.80
23618;DHT22;18207;32.078;34.818;2024-02-21T02:06:43;21.50;44.20
23618;DHT22;18207;32.078;34.818;2024-02-21T02:09:30;21.50;44.30
23618;DHT22;18207;32.078;34.818;2024-02-21T02:12:09;21.50;44.20
23618;DHT22;18207;32.078;34.818;2024-02-21T02:14:57;21.50;44.20
23618;DHT22;18207;32.078;34.818;2024-02-21T02:17:36;21.40;44.10
23618;DHT22;18207;32.078;34.818;2024-02-21T02:20:14;21.40;44.20
23618;DHT22;18207;32.078;34.818;2024-02-21T02:22:51;21.40;44.10
23618;DHT22;18207;32.078;34.818;2024-02-21T02:25:22;21.30;44.10
23618;DHT22;18207;32.078;34.818;2024-02-21T02:27:53;21.30;44.10
23618;DHT22;18207;32.078;34.818;2024-02-21T02:30:23;21.30;44.20
23618;DHT22;18207;32.078;34.818;2024-02-21T02:32:52;21.30;44.20
23618;DHT22;18207;32.078;34.818;2024-02-21T02:35:22;21.30;44.30
23618;DHT22;18207;32.078;34.818;2024-02-21T02:37:52;21.30;44.30
23618;DHT22;18207;32.078;34.818;2024-02-21T02:40:24;21.20;44.10
23618;DHT22;18207;32.078;34.818;2024-02-21T02:42:53;21.20;44.20
23618;DHT22;18207;32.078;34.818;2024-02-21T02:45:24;21.20;44.30
23618;DHT22;18207;32.078;34.818;2024-02-21T02:47:54;21.20;44.30
23618;DHT22;18207;32.078;34.818;2024-02-21T02:50:26;21.20;44.40
23618;DHT22;18207;32.078;34.818;2024-02-21T02:52:56;21.20;44.30
23618;DHT22;18207;32.078;34.818;2024-02-21T02:55:28;21.20;44.30
23618;DHT22;18207;32.078;34.818;2024-02-21T02:57:58;21.10;44.20
23618;DHT22;18207;32.078;34.818;2024-02-21T03:00:28;21.10;44.20
23618;DHT22;18207;32.078;34.818;2024-02-21T03:02:58;21.10;44.10
23618;DHT22;18207;32.078;34.818;2024-02-21T03:05:28;21.10;44.10
23618;DHT22;18207;32.078;34.818;2024-02-21T03:07:58;21.00;44.10
23618;DHT22;18207;32.078;34.818;2024-02-21T03:10:29;21.00;44.20
23618;DHT22;18207;32.078;34.818;2024-02-21T03:12:59;21.00;44.20
23618;DHT22;18207;32.078;34.818;2024-02-21T03:15:29;21.00;44.30
23618;DHT22;18207;32.078;34.818;2024-02-21T03:17:59;20.90;44.20
23618;DHT22;18207;32.078;34.818;2024-02-21T03:20:29;20.90;44.20
23618;DHT22;18207;32.078;34.818;2024-02-21T03:23:00;20.90;44.30
23618;DHT22;18207;32.078;34.818;2024-02-21T03:25:31;20.90;44.40
23618;DHT22;18207;32.078;34.818;2024-02-21T03:28:01;20.90;44.40
23618;DHT22;18207;32.078;34.818;2024-02-21T03:30:31;20.90;44.40
23618;DHT22;18207;32.078;34.818;2024-02-21T03:33:01;20.90;44.40
23618;DHT22;18207;32.078;34.818;2024-02-21T03:35:31;20.90;44.40
23618;DHT22;18207;32.078;34.818;2024-02-21T03:38:01;20.90;44.40
23618;DHT22;18207;32.078;34.818;2024-02-21T03:40:32;20.90;44.40
23618;DHT22;18207;32.078;34.818;2024-02-21T03:43:05;21.00;44.40
23618;DHT22;18207;32.078;34.818;2024-02-21T03:45:35;21.00;44.40
23618;DHT22;18207;32.078;34.818;2024-02-21T03:48:05;21.00;44.40
23618;DHT22;18207;32.078;34.818;2024-02-21T03:50:36;21.00;44.40
23618;DHT22;18207;32.078;34.818;2024-02-21T03:53:05;21.00;44.40
23618;DHT22;18207;32.078;34.818;2024-02-21T03:55:37;21.00;44.40
23618;DHT22;18207;32.078;34.818;2024-02-21T03:58:07;21.00;44.40
23618;DHT22;18207;32.078;34.818;2024-02-21T04:00:37;21.00;44.40
23618;DHT22;18207;32.078;34.818;2024-02-21T04:03:07;21.00;44.40
23618;DHT22;18207;32.078;34.818;2024-02-21T04:05:37;20.90;44.30
23618;DHT22;18207;32.078;34.818;2024-02-21T04:08:07;21.00;44.40
23618;DHT22;18207;32.078;34.818;2024-02-21T04:10:39;21.00;44.30
23618;DHT22;18207;32.078;34.818;2024-02-21T04:13:09;20.90;44.10
23618;DHT22;18207;32.078;34.818;2024-02-21T04:15:39;20.90;44.50
23618;DHT22;18207;32.078;34.818;2024-02-21T04:18:09;20.90;44.20
23618;DHT22;18207;32.078;34.818;2024-02-21T04:20:39;20.90;44.20
23618;DHT22;18207;32.078;34.818;2024-02-21T04:23:09;20.90;44.20
23618;DHT22;18207;32.078;34.818;2024-02-21T04:25:40;20.90;44.30
23618;DHT22;18207;32.078;34.818;2024-02-21T04:28:10;20.90;44.20
23618;DHT22;18207;32.078;34.818;2024-02-21T04:30:40;20.90;44.20
23618;DHT22;18207;32.078;34.818;2024-02-21T04:33:10;20.90;44.20
23618;DHT22;18207;32.078;34.818;2024-02-21T04:35:40;20.90;44.20
23618;DHT22;18207;32.078;34.818;2024-02-21T04:38:10;20.90;44.20
23618;DHT22;18207;32.078;34.818;2024-02-21T04:40:41;20.90;44.20
23618;DHT22;18207;32.078;34.818;2024-02-21T04:43:11;20.90;44.20
23618;DHT22;18207;32.078;34.818;2024-02-21T04:45:41;20.90;44.30
23618;DHT22;18207;32.078;34.818;2024-02-21T04:48:11;20.90;44.30
23618;DHT22;18207;32.078;34.818;2024-02-21T04:50:40;20.90;44.20
23618;DHT22;18207;32.078;34.818;2024-02-21T04:53:10;20.90;44.20
23618;DHT22;18207;32.078;34.818;2024-02-21T04:55:51;20.90;44.20
23618;DHT22;18207;32.078;34.818;2024-02-21T04:58:21;20.80;44.10
23618;DHT22;18207;32.078;34.818;2024-02-21T05:00:51;20.80;44.20
23618;DHT22;18207;32.078;34.818;2024-02-21T05:03:23;20.80;44.20
23618;DHT22;18207;32.078;34.818;2024-02-21T05:05:53;20.80;44.20
23618;DHT22;18207;32.078;34.818;2024-02-21T05:08:23;20.80;44.20
23618;DHT22;18207;32.078;34.818;2024-02-21T05:10:54;20.80;44.30
23618;DHT22;18207;32.078;34.818;2024-02-21T05:13:26;20.80;44.30
23618;DHT22;18207;32.078;34.818;2024-02-21T05:15:56;20.70;44.30
23618;DHT22;18207;32.078;34.818;2024-02-21T05:18:29;20.70;44.40
23618;DHT22;18207;32.078;34.818;2024-02-21T05:20:59;20.70;44.50
23618;DHT22;18207;32.078;34.818;2024-02-21T05:23:30;20.80;44.70
23618;DHT22;18207;32.078;34.818;2024-02-21T05:26:01;20.80;44.80
23618;DHT22;18207;32.078;34.818;2024-02-21T05:28:31;20.80;44.80
23618;DHT22;18207;32.078;34.818;2024-02-21T05:31:01;20.80;44.90
23618;DHT22;18207;32.078;34.818;2024-02-21T05:33:31;20.90;45.00
23618;DHT22;18207;32.078;34.818;2024-02-21T05:36:01;20.90;45.00
23618;DHT22;18207;32.078;34.818;2024-02-21T05:38:32;21.00;45.20
23618;DHT22;18207;32.078;34.818;2024-02-21T05:41:03;21.10;45.20
23618;DHT22;18207;32.078;34.818;2024-02-21T05:43:38;21.10;45.20
23618;DHT22;18207;32.078;34.818;2024-02-21T05:46:08;21.20;45.30
23618;DHT22;18207;32.078;34.818;2024-02-21T05:48:37;21.20;45.20
23618;DHT22;18207;32.078;34.818;2024-02-21T05:51:07;21.30;45.30
23618;DHT22;18207;32.078;34.818;2024-02-21T05:53:37;21.40;45.40
23618;DHT22;18207;32.078;34.818;2024-02-21T05:56:12;21.40;45.30
23618;DHT22;18207;32.078;34.818;2024-02-21T05:58:42;21.50;45.40
23618;DHT22;18207;32.078;34.818;2024-02-21T06:01:12;21.60;45.40
23618;DHT22;18207;32.078;34.818;2024-02-21T06:03:42;21.70;45.40
23618;DHT22;18207;32.078;34.818;2024-02-21T06:06:12;21.70;45.30
23618;DHT22;18207;32.078;34.818;2024-02-21T06:08:43;21.80;45.30
23618;DHT22;18207;32.078;34.818;2024-02-21T06:11:14;21.90;45.30
23618;DHT22;18207;32.078;34.818;2024-02-21T06:13:44;21.90;45.30
23618;DHT22;18207;32.078;34.818;2024-02-21T06:16:14;22.00;45.20
23618;DHT22;18207;32.078;34.818;2024-02-21T06:18:44;22.10;45.20
23618;DHT22;18207;32.078;34.818;2024-02-21T06:21:14;22.10;45.20
23618;DHT22;18207;32.078;34.818;2024-02-21T06:23:44;22.20;45.20
23618;DHT22;18207;32.078;34.818;2024-02-21T06:26:15;22.30;45.30
23618;DHT22;18207;32.078;34.818;2024-02-21T06:28:45;22.30;45.20
23618;DHT22;18207;32.078;34.818;2024-02-21T06:31:15;22.50;45.30
23618;DHT22;18207;32.078;34.818;2024-02-21T06:33:45;22.50;45.30
23618;DHT22;18207;32.078;34.818;2024-02-21T06:36:15;22.60;45.20
23618;DHT22;18207;32.078;34.818;2024-02-21T06:38:45;22.60;45.10
23618;DHT22;18207;32.078;34.818;2024-02-21T06:41:17;22.70;45.20
23618;DHT22;18207;32.078;34.818;2024-02-21T06:43:47;22.80;45.20
23618;DHT22;18207;32.078;34.818;2024-02-21T06:46:26;22.90;45.20
23618;DHT22;18207;32.078;34.818;2024-02-21T06:48:57;23.00;45.10
23618;DHT22;18207;32.078;34.818;2024-02-21T06:51:31;23.10;45.20
23618;DHT22;18207;32.078;34.818;2024-02-21T06:54:02;23.20;45.20
23618;DHT22;18207;32.078;34.818;2024-02-21T06:56:33;23.30;45.20
23618;DHT22;18207;32.078;34.818;2024-02-21T06:59:03;23.30;45.10
23618;DHT22;18207;32.078;34.818;2024-02-21T07:01:33;23.40;45.00
23618;DHT22;18207;32.078;34.818;2024-02-21T07:04:03;23.50;45.00
23618;DHT22;18207;32.078;34.818;2024-02-21T07:06:33;23.50;44.90
23618;DHT22;18207;32.078;34.818;2024-02-21T07:09:03;23.60;44.80
23618;DHT22;18207;32.078;34.818;2024-02-21T07:11:35;23.60;44.70
23618;DHT22;18207;32.078;34.818;2024-02-21T07:14:04;23.70;44.60
23618;DHT22;18207;32.078;34.818;2024-02-21T07:16:34;23.70;44.50
23618;DHT22;18207;32.078;34.818;2024-02-21T07:19:04;23.80;44.50
23618;DHT22;18207;32.078;34.818;2024-02-21T07:21:34;23.80;44.40
23618;DHT22;18207;32.078;34.818;2024-02-21T07:24:06;23.90;44.30
23618;DHT22;18207;32.078;34.818;2024-02-21T07:26:40;23.90;44.20
23618;DHT22;18207;32.078;34.818;2024-02-21T07:29:14;24.00;44.20
23618;DHT22;18207;32.078;34.818;2024-02-21T07:31:44;24.10;44.10
23618;DHT22;18207;32.078;34.818;2024-02-21T07:34:16;24.10;44.00
23618;DHT22;18207;32.078;34.818;2024-02-21T07:36:46;24.20;43.90
23618;DHT22;18207;32.078;34.818;2024-02-21T07:39:16;24.20;43.80
23618;DHT22;18207;32.078;34.818;2024-02-21T07:41:47;24.20;43.60
23618;DHT22;18207;32.078;34.818;2024-02-21T07:44:17;24.30;43.50
23618;DHT22;18207;32.078;34.818;2024-02-21T07:46:47;24.30;43.50
23618;DHT22;18207;32.078;34.818;2024-02-21T07:49:17;24.40;43.60
23618;DHT22;18207;32.078;34.818;2024-02-21T07:51:47;24.50;43.50
23618;DHT22;18207;32.078;34.818;2024-02-21T07:54:17;24.50;43.60
23618;DHT22;18207;32.078;34.818;2024-02-21T07:56:49;24.50;43.20
23618;DHT22;18207;32.078;34.818;2024-02-21T07:59:19;24.60;43.30
23618;DHT22;18207;32.078;34.818;2024-02-21T08:01:51;24.70;43.20
23618;DHT22;18207;32.078;34.818;2024-02-21T08:04:24;24.70;43.20
23618;DHT22;18207;32.078;34.818;2024-02-21T08:06:54;24.80;43.20
23618;DHT22;18207;32.078;34.818;2024-02-21T08:09:27;24.80;43.00
23618;DHT22;18207;32.078;34.818;2024-02-21T08:11:58;24.80;42.80
23618;DHT22;18207;32.078;34.818;2024-02-21T08:14:28;24.90;42.80
23618;DHT22;18207;32.078;34.818;2024-02-21T08:16:58;25.00;42.80
23618;DHT22;18207;32.078;34.818;2024-02-21T08:19:28;25.00;42.70
23618;DHT22;18207;32.078;34.818;2024-02-21T08:21:58;25.10;42.70
23618;DHT22;18207;32.078;34.818;2024-02-21T08:24:31;25.10;42.60
23618;DHT22;18207;32.078;34.818;2024-02-21T08:27:02;25.10;42.30
23618;DHT22;18207;32.078;34.818;2024-02-21T08:29:32;25.20;42.20
23618;DHT22;18207;32.078;34.818;2024-02-21T08:32:02;25.30;42.20
23618;DHT22;18207;32.078;34.818;2024-02-21T08:34:32;25.30;42.10
23618;DHT22;18207;32.078;34.818;2024-02-21T08:37:03;25.30;42.10
23618;DHT22;18207;32.078;34.818;2024-02-21T08:39:33;25.40;42.10
23618;DHT22;18207;32.078;34.818;2024-02-21T08:42:05;25.40;42.00
23618;DHT22;18207;32.078;34.818;2024-02-21T08:44:35;25.50;42.10
23618;DHT22;18207;32.078;34.818;2024-02-21T08:47:05;25.50;42.00
23618;DHT22;18207;32.078;34.818;2024-02-21T08:49:38;25.60;42.00
23618;DHT22;18207;32.078;34.818;2024-02-21T08:52:09;25.60;41.80
23618;DHT22;18207;32.078;34.818;2024-02-21T08:54:39;25.70;41.90
23618;DHT22;18207;32.078;34.818;2024-02-21T08:57:19;25.70;41.90
23618;DHT22;18207;32.078;34.818;2024-02-21T08:59:49;25.80;41.80
23618;DHT22;18207;32.078;34.818;2024-02-21T09:02:19;25.80;41.70
23618;DHT22;18207;32.078;34.818;2024-02-21T09:04:49;25.90;41.60
23618;DHT22;18207;32.078;34.818;2024-02-21T09:07:19;25.90;41.60
23618;DHT22;18207;32.078;34.818;2024-02-21T09:09:49;25.90;41.30
23618;DHT22;18207;32.078;34.818;2024-02-21T09:12:20;25.90;41.20
23618;DHT22;18207;32.078;34.818;2024-02-21T09:14:50;26.00;41.10
23618;DHT22;18207;32.078;34.818;2024-02-21T09:17:20;25.90;40.90
23618;DHT22;18207;32.078;34.818;2024-02-21T09:19:50;26.00;40.90
23618;DHT22;18207;32.078;34.818;2024-02-21T09:22:20;26.00;40.80
23618;DHT22;18207;32.078;34.818;2024-02-21T09:24:50;26.00;40.70
23618;DHT22;18207;32.078;34.818;2024-02-21T09:27:21;26.00;40.70
23618;DHT22;18207;32.078;34.818;2024-02-21T09:29:51;26.00;40.70
23618;DHT22;18207;32.078;34.818;2024-02-21T09:32:22;26.00;40.80
23618;DHT22;18207;32.078;34.818;2024-02-21T09:34:55;26.00;40.80
23618;DHT22;18207;32.078;34.818;2024-02-21T09:37:29;25.90;40.70
23618;DHT22;18207;32.078;34.818;2024-02-21T09:39:59;26.00;40.60
23618;DHT22;18207;32.078;34.818;2024-02-21T09:42:37;26.00;40.50
23618;DHT22;18207;32.078;34.818;2024-02-21T09:45:12;25.90;40.40
23618;DHT22;18207;32.078;34.818;2024-02-21T09:48:02;25.90;40.40
23618;DHT22;18207;32.078;34.818;2024-02-21T09:50:46;25.90;40.40
23618;DHT22;18207;32.078;34.818;2024-02-21T09:53:18;26.00;40.50
23618;DHT22;18207;32.078;34.818;2024-02-21T09:55:49;26.00;40.50
23618;DHT22;18207;32.078;34.818;2024-02-21T09:58:22;26.00;41.20
23618;DHT22;18207;32.078;34.818;2024-02-21T10:00:55;26.00;40.40
23618;DHT22;18207;32.078;34.818;2024-02-21T10:03:30;26.00;40.40
23618;DHT22;18207;32.078;34.818;2024-02-21T10:06:01;26.00;40.20
23618;DHT22;18207;32.078;34.818;2024-02-21T10:08:31;26.00;40.10
23618;DHT22;18207;32.078;34.818;2024-02-21T10:11:03;26.00;40.00
23618;DHT22;18207;32.078;34.818;2024-02-21T10:13:40;26.00;40.00
23618;DHT22;18207;32.078;34.818;2024-02-21T10:16:13;26.00;39.90
23618;DHT22;18207;32.078;34.818;2024-02-21T10:18:43;25.90;39.80
23618;DHT22;18207;32.078;34.818;2024-02-21T10:21:13;25.90;39.80
23618;DHT22;18207;32.078;34.818;2024-02-21T10:23:44;25.90;39.80
23618;DHT22;18207;32.078;34.818;2024-02-21T10:26:16;25.90;39.80
23618;DHT22;18207;32.078;34.818;2024-02-21T10:28:49;25.90;39.70
23618;DHT22;18207;32.078;34.818;2024-02-21T10:31:24;25.90;39.60
23618;DHT22;18207;32.078;34.818;2024-02-21T10:33:57;25.80;39.50
23618;DHT22;18207;32.078;34.818;2024-02-21T10:36:31;25.80;39.50
23618;DHT22;18207;32.078;34.818;2024-02-21T10:39:02;25.80;39.50
23618;DHT22;18207;32.078;34.818;2024-02-21T10:41:32;25.80;39.50
23618;DHT22;18207;32.078;34.818;2024-02-21T10:44:05;25.70;39.50
23618;DHT22;18207;32.078;34.818;2024-02-21T10:46:39;25.70;39.50
23618;DHT22;18207;32.078;34.818;2024-02-21T10:49:19;25.60;39.50
23618;DHT22;18207;32.078;34.818;2024-02-21T10:51:55;25.70;39.40
23618;DHT22;18207;32.078;34.818;2024-02-21T10:54:43;25.60;39.40
23618;DHT22;18207;32.078;34.818;2024-02-21T10:57:19;25.60;39.40
23618;DHT22;18207;32.078;34.818;2024-02-21T10:59:53;25.50;39.40
23618;DHT22;18207;32.078;34.818;2024-02-21T11:02:28;25.50;39.40
23618;DHT22;18207;32.078;34.818;2024-02-21T11:04:59;25.50;39.40
23618;DHT22;18207;32.078;34.818;2024-02-21T11:07:32;25.50;39.40
23618;DHT22;18207;32.078;34.818;2024-02-21T11:10:19;25.40;39.40
23618;DHT22;18207;32.078;34.818;2024-02-21T11:12:53;25.40;39.40
23618;DHT22;18207;32.078;34.818;2024-02-21T11:15:28;25.40;39.40
23618;DHT22;18207;32.078;34.818;2024-02-21T11:18:00;25.40;39.30
23618;DHT22;18207;32.078;34.818;2024-02-21T11:20:34;25.40;39.30
23618;DHT22;18207;32.078;34.818;2024-02-21T11:23:05;25.40;39.20
23618;DHT22;18207;32.078;34.818;2024-02-21T11:25:35;25.40;39.20
23618;DHT22;18207;32.078;34.818;2024-02-21T11:28:05;25.40;39.20
23618;DHT22;18207;32.078;34.818;2024-02-21T11:30:39;25.30;39.20
23618;DHT22;18207;32.078;34.818;2024-02-21T11:33:12;25.30;39.20
23618;DHT22;18207;32.078;34.818;2024-02-21T11:35:43;25.30;39.30
23618;DHT22;18207;32.078;34.818;2024-02-21T11:38:14;25.30;39.20
23618;DHT22;18207;32.078;34.818;2024-02-21T11:40:45;25.20;39.10
23618;DHT22;18207;32.078;34.818;2024-02-21T11:43:16;25.20;39.00
23618;DHT22;18207;32.078;34.818;2024-02-21T11:45:49;25.20;38.90
23618;DHT22;18207;32.078;34.818;2024-02-21T11:48:20;25.20;38.90
23618;DHT22;18207;32.078;34.818;2024-02-21T11:50:53;25.10;38.90
23618;DHT22;18207;32.078;34.818;2024-02-21T11:53:24;25.10;38.90
23618;DHT22;18207;32.078;34.818;2024-02-21T11:56:02;25.10;38.90
23618;DHT22;18207;32.078;34.818;2024-02-21T11:58:32;25.10;38.90
23618;DHT22;18207;32.078;34.818;2024-02-21T12:01:04;25.10;39.00
23618;DHT22;18207;32.078;34.818;2024-02-21T12:03:35;25.00;38.90
23618;DHT22;18207;32.078;34.818;2024-02-21T12:06:06;25.00;38.90
23618;DHT22;18207;32.078;34.818;2024-02-21T12:08:41;25.00;38.80
23618;DHT22;18207;32.078;34.818;2024-02-21T12:11:21;24.90;38.70
23618;DHT22;18207;32.078;34.818;2024-02-21T12:13:59;24.90;38.70
23618;DHT22;18207;32.078;34.818;2024-02-21T12:16:37;24.90;38.70
23618;DHT22;18207;32.078;34.818;2024-02-21T12:19:07;24.90;38.70
23618;DHT22;18207;32.078;34.818;2024-02-21T12:21:37;24.90;38.70
23618;DHT22;18207;32.078;34.818;2024-02-21T12:24:14;24.90;38.70
23618;DHT22;18207;32.078;34.818;2024-02-21T12:26:45;24.90;38.50
23618;DHT22;18207;32.078;34.818;2024-02-21T12:29:15;24.80;38.50
23618;DHT22;18207;32.078;34.818;2024-02-21T12:31:49;24.80;38.50
23618;DHT22;18207;32.078;34.818;2024-02-21T12:34:20;24.80;38.50
23618;DHT22;18207;32.078;34.818;2024-02-21T12:37:11;24.80;38.50
23618;DHT22;18207;32.078;34.818;2024-02-21T12:39:43;24.80;38.50
23618;DHT22;18207;32.078;34.818;2024-02-21T12:42:13;24.70;38.40
23618;DHT22;18207;32.078;34.818;2024-02-21T12:44:43;24.70;38.50
23618;DHT22;18207;32.078;34.818;2024-02-21T12:47:15;24.70;38.50
23618;DHT22;18207;32.078;34.818;2024-02-21T12:49:47;24.70;38.50
23618;DHT22;18207;32.078;34.818;2024-02-21T12:52:17;24.70;38.60
23618;DHT22;18207;32.078;34.818;2024-02-21T12:54:47;24.70;38.60
23618;DHT22;18207;32.078;34.818;2024-02-21T12:57:20;24.60;38.50
23618;DHT22;18207;32.078;34.818;2024-02-21T12:59:56;24.70;38.50
23618;DHT22;18207;32.078;34.818;2024-02-21T13:02:27;24.70;38.50
23618;DHT22;18207;32.078;34.818;2024-02-21T13:04:57;24.60;38.40
23618;DHT22;18207;32.078;34.818;2024-02-21T13:07:28;24.60;38.50
23618;DHT22;18207;32.078;34.818;2024-02-21T13:10:02;24.60;38.50
23618;DHT22;18207;32.078;34.818;2024-02-21T13:12:33;24.60;38.50
23618;DHT22;18207;32.078;34.818;2024-02-21T13:15:04;24.60;38.50
23618;DHT22;18207;32.078;34.818;2024-02-21T13:17:36;24.60;38.50
23618;DHT22;18207;32.078;34.818;2024-02-21T13:20:08;24.60;38.50
23618;DHT22;18207;32.078;34.818;2024-02-21T13:22:39;24.60;38.50
23618;DHT22;18207;32.078;34.818;2024-02-21T13:25:09;24.60;38.50
23618;DHT22;18207;32.078;34.818;2024-02-21T13:27:50;24.60;38.50
23618;DHT22;18207;32.078;34.818;2024-02-21T13:30:19;24.60;38.40
23618;DHT22;18207;32.078;34.818;2024-02-21T13:32:51;24.60;38.40
23618;DHT22;18207;32.078;34.818;2024-02-21T13:35:22;24.50;38.30
23618;DHT22;18207;32.078;34.818;2024-02-21T13:37:53;24.60;38.40
23618;DHT22;18207;32.078;34.818;2024-02-21T13:40:24;24.60;38.50
23618;DHT22;18207;32.078;34.818;2024-02-21T13:42:54;24.60;38.50
23618;DHT22;18207;32.078;34.818;2024-02-21T13:45:24;24.60;38.50
23618;DHT22;18207;32.078;34.818;2024-02-21T13:47:57;24.50;38.30
23618;DHT22;18207;32.078;34.818;2024-02-21T13:50:31;24.60;38.30
23618;DHT22;18207;32.078;34.818;2024-02-21T13:53:09;24.60;38.30
23618;DHT22;18207;32.078;34.818;2024-02-21T13:55:39;24.50;38.20
23618;DHT22;18207;32.078;34.818;2024-02-21T13:58:11;24.50;38.20
23618;DHT22;18207;32.078;34.818;2024-02-21T14:00:42;24.50;38.20
23618;DHT22;18207;32.078;34.818;2024-02-21T14:03:14;24.50;38.10
23618;DHT22;18207;32.078;34.818;2024-02-21T14:05:44;24.50;38.10
23618;DHT22;18207;32.078;34.818;2024-02-21T14:08:16;24.50;38.10
23618;DHT22;18207;32.078;34.818;2024-02-21T14:10:46;24.50;38.10
23618;DHT22;18207;32.078;34.818;2024-02-21T14:13:16;24.50;38.10
23618;DHT22;18207;32.078;34.818;2024-02-21T14:15:46;24.50;38.10
23618;DHT22;18207;32.078;34.818;2024-02-21T14:18:19;24.50;38.10
23618;DHT22;18207;32.078;34.818;2024-02-21T14:20:49;24.50;38.10
23618;DHT22;18207;32.078;34.818;2024-02-21T14:23:20;24.50;38.10
23618;DHT22;18207;32.078;34.818;2024-02-21T14:25:53;24.50;38.20
23618;DHT22;18207;32.078;34.818;2024-02-21T14:28:30;24.50;38.20
23618;DHT22;18207;32.078;34.818;2024-02-21T14:31:03;24.50;38.30
23618;DHT22;18207;32.078;34.818;2024-02-21T14:33:39;24.50;38.30
23618;DHT22;18207;32.078;34.818;2024-02-21T14:36:11;24.50;38.30
23618;DHT22;18207;32.078;34.818;2024-02-21T14:38:43;24.50;38.20
23618;DHT22;18207;32.078;34.818;2024-02-21T14:41:14;24.40;38.10
23618;DHT22;18207;32.078;34.818;2024-02-21T14:43:45;24.40;38.10
23618;DHT22;18207;32.078;34.818;2024-02-21T14:46:15;24.40;38.20
23618;DHT22;18207;32.078;34.818;2024-02-21T14:48:46;24.40;38.10
23618;DHT22;18207;32.078;34.818;2024-02-21T14:51:16;24.40;38.10
23618;DHT22;18207;32.078;34.818;2024-02-21T14:53:46;24.40;38.10
23618;DHT22;18207;32.078;34.818;2024-02-21T14:56:19;24.40;38.10
23618;DHT22;18207;32.078;34.818;2024-02-21T14:58:48;24.40;38.10
23618;DHT22;18207;32.078;34.818;2024-02-21T15:01:23;24.30;38.10
23618;DHT22;18207;32.078;34.818;2024-02-21T15:03:55;24.30;38.10
23618;DHT22;18207;32.078;34.818;2024-02-21T15:06:25;24.30;38.10
23618;DHT22;18207;32.078;34.818;2024-02-21T15:08:56;24.30;38.10
23618;DHT22;18207;32.078;34.818;2024-02-21T15:11:26;24.30;38.10
23618;DHT22;18207;32.078;34.818;2024-02-21T15:13:56;24.30;38.20
23618;DHT22;18207;32.078;34.818;2024-02-21T15:16:25;24.30;38.20
23618;DHT22;18207;32.078;34.818;2024-02-21T15:18:57;24.30;38.20
23618;DHT22;18207;32.078;34.818;2024-02-21T15:21:28;24.30;38.30
23618;DHT22;18207;32.078;34.818;2024-02-21T15:23:58;24.30;38.30
23618;DHT22;18207;32.078;34.818;2024-02-21T15:26:31;24.30;38.30
23618;DHT22;18207;32.078;34.818;2024-02-21T15:29:01;24.30;38.30
23618;DHT22;18207;32.078;34.818;2024-02-21T15:31:32;24.30;38.30
23618;DHT22;18207;32.078;34.818;2024-02-21T15:34:04;24.30;38.30
23618;DHT22;18207;32.078;34.818;2024-02-21T15:36:34;24.30;38.40
23618;DHT22;18207;32.078;34.818;2024-02-21T15:39:07;24.20;38.30
23618;DHT22;18207;32.078;34.818;2024-02-21T15:41:41;24.20;38.30
23618;DHT22;18207;32.078;34.818;2024-02-21T15:44:11;24.20;38.30
23618;DHT22;18207;32.078;34.818;2024-02-21T15:46:42;24.20;38.30